createdAt,value
2022-11-02T00:01:04.547Z,11.46
2022-11-02T00:03:32.758Z,11.44
2022-11-02T00:06:01.047Z,11.40
2022-11-02T00:08:29.439Z,11.40
2022-11-02T00:10:57.778Z,11.40
2022-11-02T00:13:26.013Z,11.42
2022-11-02T00:15:55.186Z,11.42
2022-11-02T00:18:24.957Z,11.37
2022-11-02T00:20:53.234Z,11.32
2022-11-02T00:23:21.717Z,11.30
2022-11-02T00:25:51.208Z,11.28
2022-11-02T00:28:19.918Z,11.26
2022-11-02T00:30:48.246Z,11.22
2022-11-02T00:33:16.706Z,11.20
2022-11-02T00:35:46.718Z,11.18
2022-11-02T00:38:16.046Z,11.18
2022-11-02T00:40:45.977Z,11.14
2022-11-02T00:43:14.434Z,11.09
2022-11-02T00:45:43.106Z,11.05
2022-11-02T00:48:11.647Z,11.00
2022-11-02T00:50:40.830Z,10.94
2022-11-02T00:53:10.599Z,10.92
2022-11-02T00:55:44.759Z,10.89
2022-11-02T00:58:13.159Z,10.86
2022-11-02T01:00:41.516Z,10.88
2022-11-02T01:03:11.369Z,10.90
2022-11-02T01:05:39.661Z,10.88
2022-11-02T01:08:07.888Z,10.86
2022-11-02T01:10:37.599Z,10.87
2022-11-02T01:13:06.045Z,10.82
2022-11-02T01:15:34.186Z,10.75
2022-11-02T01:18:02.783Z,10.74
2022-11-02T01:20:31.667Z,10.80
2022-11-02T01:23:00.226Z,10.80
2022-11-02T01:25:28.559Z,10.77
2022-11-02T01:27:58.315Z,10.77
2022-11-02T01:30:26.738Z,10.77
2022-11-02T01:32:55.048Z,10.78
2022-11-02T01:35:23.501Z,10.75
2022-11-02T01:37:52.084Z,10.71
2022-11-02T01:40:20.479Z,10.69
2022-11-02T01:42:48.834Z,10.61
2022-11-02T01:45:18.765Z,10.53
2022-11-02T01:47:49.266Z,10.48
2022-11-02T01:50:21.085Z,10.43
2022-11-02T01:52:49.488Z,10.35
2022-11-02T01:55:21.069Z,10.30
2022-11-02T01:57:51.319Z,10.26
2022-11-02T02:00:21.547Z,10.19
2022-11-02T02:02:52.814Z,10.21
2022-11-02T02:05:22.564Z,10.27
2022-11-02T02:07:52.620Z,10.32
2022-11-02T02:10:21.098Z,10.34
2022-11-02T02:12:51.597Z,10.30
2022-11-02T02:15:25.634Z,10.26
2022-11-02T02:17:57.475Z,10.21
2022-11-02T02:20:34.734Z,10.21
2022-11-02T02:23:22.094Z,10.23
2022-11-02T02:26:02.876Z,10.15
2022-11-02T02:28:39.099Z,10.12
2022-11-02T02:31:11.848Z,10.07
2022-11-02T02:33:44.999Z,10.05
2022-11-02T02:36:16.796Z,10.08
2022-11-02T02:38:46.943Z,10.01
2022-11-02T02:41:17.418Z,9.94
2022-11-02T02:43:50.618Z,9.93
2022-11-02T02:46:20.958Z,9.91
2022-11-02T02:48:50.299Z,9.88
2022-11-02T02:51:21.119Z,9.87
2022-11-02T02:53:51.279Z,9.85
2022-11-02T02:56:24.785Z,9.88
2022-11-02T02:58:58.114Z,9.85
2022-11-02T03:01:29.815Z,9.76
2022-11-02T03:03:58.571Z,9.72
2022-11-02T03:06:29.032Z,9.65
2022-11-02T03:09:05.076Z,9.67
2022-11-02T03:11:34.879Z,9.72
2022-11-02T03:14:17.117Z,9.75
2022-11-02T03:16:56.382Z,9.74
2022-11-02T03:19:26.376Z,9.73
2022-11-02T03:22:00.526Z,9.75
2022-11-02T03:24:31.605Z,9.78
2022-11-02T03:27:06.697Z,9.82
2022-11-02T03:29:40.748Z,9.86
2022-11-02T03:32:12.581Z,9.87
2022-11-02T03:34:45.714Z,9.87
2022-11-02T03:37:17.378Z,9.88
2022-11-02T03:39:49.369Z,9.88
2022-11-02T03:42:20.254Z,9.84
2022-11-02T03:44:57.233Z,9.82
2022-11-02T03:47:31.142Z,9.87
2022-11-02T03:50:03.477Z,9.85
2022-11-02T03:52:33.096Z,9.84
2022-11-02T03:55:05.176Z,9.83
2022-11-02T03:57:40.549Z,9.82
2022-11-02T04:00:12.937Z,9.81
2022-11-02T04:02:48.595Z,9.80
2022-11-02T04:05:17.017Z,9.80
2022-11-02T04:07:59.486Z,9.75
2022-11-02T04:10:29.537Z,9.66
2022-11-02T04:13:07.813Z,9.61
2022-11-02T04:15:37.695Z,9.64
2022-11-02T04:18:16.047Z,9.72
2022-11-02T04:20:44.497Z,9.74
2022-11-02T04:23:21.737Z,9.78
2022-11-02T04:25:53.869Z,9.79
2022-11-02T04:28:42.884Z,9.78
2022-11-02T04:31:13.477Z,9.80
2022-11-02T04:33:42.131Z,9.85
2022-11-02T04:36:13.115Z,9.88
2022-11-02T04:38:41.758Z,9.90
2022-11-02T04:41:45.876Z,9.90
2022-11-02T04:44:28.018Z,9.96
2022-11-02T04:47:05.480Z,9.98
2022-11-02T04:49:36.225Z,9.96
2022-11-02T04:52:07.617Z,9.95
2022-11-02T04:54:38.107Z,9.96
2022-11-02T04:57:08.722Z,9.98
2022-11-02T04:59:37.935Z,10.00
2022-11-02T05:02:09.837Z,10.00
2022-11-02T05:04:39.559Z,10.01
2022-11-02T05:07:08.935Z,10.01
2022-11-02T05:09:42.724Z,10.01
2022-11-02T05:12:12.558Z,9.98
2022-11-02T05:14:41.776Z,10.01
2022-11-02T05:17:13.763Z,10.01
2022-11-02T05:19:42.246Z,10.02
2022-11-02T05:22:10.921Z,10.03
2022-11-02T05:24:39.947Z,10.03
2022-11-02T05:27:10.765Z,10.06
2022-11-02T05:29:40.377Z,10.05
2022-11-02T05:32:09.027Z,10.07
2022-11-02T05:34:38.660Z,10.09
2022-11-02T05:37:07.906Z,10.12
2022-11-02T05:39:37.593Z,10.11
2022-11-02T05:42:06.067Z,10.13
2022-11-02T05:44:34.298Z,10.13
2022-11-02T05:47:02.658Z,10.10
2022-11-02T05:49:31.069Z,10.09
2022-11-02T05:52:01.026Z,10.09
2022-11-02T05:54:29.548Z,10.14
2022-11-02T05:56:58.559Z,10.13
2022-11-02T05:59:26.998Z,10.13
2022-11-02T06:01:55.336Z,10.16
2022-11-02T06:04:23.675Z,10.19
2022-11-02T06:06:51.994Z,10.22
2022-11-02T06:09:21.696Z,10.26
2022-11-02T06:11:49.955Z,10.30
2022-11-02T06:14:18.295Z,10.33
2022-11-02T06:16:46.579Z,10.35
2022-11-02T06:21:48.640Z,10.41
2022-11-02T06:24:17.298Z,10.47
2022-11-02T06:26:47.269Z,10.50
2022-11-02T06:29:15.618Z,10.52
2022-11-02T06:31:43.778Z,10.55
2022-11-02T06:34:12.077Z,10.61
2022-11-02T06:36:40.294Z,10.63
2022-11-02T06:39:08.668Z,10.69
2022-11-02T06:41:37.278Z,10.74
2022-11-02T06:44:07.368Z,10.75
2022-11-02T06:46:35.705Z,10.78
2022-11-02T06:49:03.914Z,10.78
2022-11-02T06:51:32.246Z,10.82
2022-11-02T06:54:04.557Z,10.86
2022-11-02T06:56:37.381Z,10.87
2022-11-02T06:59:07.060Z,10.90
2022-11-02T07:01:35.607Z,10.90
2022-11-02T07:04:04.079Z,10.89
2022-11-02T07:06:32.301Z,10.89
2022-11-02T07:09:00.502Z,10.90
2022-11-02T07:11:29.275Z,10.88
2022-11-02T07:13:57.558Z,10.84
2022-11-02T07:16:27.343Z,10.83
2022-11-02T07:18:55.714Z,10.93
2022-11-02T07:21:23.967Z,11.13
2022-11-02T07:23:52.159Z,11.32
2022-11-02T07:26:20.425Z,11.46
2022-11-02T07:28:48.776Z,11.59
2022-11-02T07:31:17.028Z,11.70
2022-11-02T07:33:47.074Z,11.83
2022-11-02T07:36:15.416Z,12.00
2022-11-02T07:38:43.698Z,12.12
2022-11-02T07:41:12.078Z,12.24
2022-11-02T07:43:43.112Z,12.34
2022-11-02T07:46:24.108Z,12.44
2022-11-02T07:48:54.262Z,12.50
2022-11-02T07:51:22.786Z,12.62
2022-11-02T07:53:51.139Z,12.76
2022-11-02T07:56:19.546Z,12.86
2022-11-02T07:58:47.806Z,12.95
2022-11-02T08:01:16.173Z,12.99
2022-11-02T08:03:44.438Z,13.05
2022-11-02T08:06:14.140Z,13.14
2022-11-02T08:08:42.751Z,13.28
2022-11-02T08:11:11.310Z,13.43
2022-11-02T08:13:39.806Z,13.46
2022-11-02T08:16:08.242Z,13.59
2022-11-02T08:18:36.688Z,13.72
2022-11-02T08:21:05.025Z,13.86
2022-11-02T08:23:35.364Z,13.94
2022-11-02T08:26:03.594Z,14.04
2022-11-02T08:28:35.742Z,14.06
2022-11-02T08:31:04.022Z,14.10
2022-11-02T08:33:32.183Z,14.16
2022-11-02T08:36:03.014Z,14.21
2022-11-02T08:38:31.281Z,14.22
2022-11-02T08:41:00.857Z,14.35
2022-11-02T08:43:29.264Z,14.46
2022-11-02T08:46:16.396Z,14.60
2022-11-02T08:48:46.185Z,14.70
2022-11-02T08:51:14.333Z,14.82
2022-11-02T08:53:47.057Z,14.89
2022-11-02T08:56:18.602Z,15.00
2022-11-02T08:58:46.823Z,15.08
2022-11-02T09:01:15.370Z,15.15
2022-11-02T09:03:43.593Z,15.18
2022-11-02T09:06:12.244Z,15.28
2022-11-02T09:08:40.453Z,15.44
2022-11-02T09:11:09.376Z,15.28
2022-11-02T09:13:39.202Z,15.33
2022-11-02T09:16:07.834Z,15.35
2022-11-02T09:18:36.116Z,15.56
2022-11-02T09:21:04.894Z,15.73
2022-11-02T09:23:33.474Z,15.79
2022-11-02T09:26:01.794Z,15.85
2022-11-02T09:28:30.093Z,15.93
2022-11-02T09:30:59.831Z,16.12
2022-11-02T09:33:30.754Z,16.34
2022-11-02T09:36:02.976Z,16.39
2022-11-02T09:38:31.302Z,16.47
2022-11-02T09:41:03.535Z,16.49
2022-11-02T09:43:40.992Z,16.55
2022-11-02T09:46:13.452Z,16.62
2022-11-02T09:48:43.960Z,16.62
2022-11-02T09:51:13.917Z,16.72
2022-11-02T09:53:48.093Z,16.83
2022-11-02T09:56:19.928Z,17.03
2022-11-02T09:58:51.033Z,17.09
2022-11-02T10:01:26.275Z,17.12
2022-11-02T10:04:08.392Z,17.30
2022-11-02T10:06:38.933Z,17.41
2022-11-02T10:09:10.273Z,17.46
2022-11-02T10:11:44.492Z,17.61
2022-11-02T10:14:16.395Z,17.61
2022-11-02T10:16:50.847Z,17.50
2022-11-02T10:19:22.291Z,17.56
2022-11-02T10:21:54.463Z,17.46
2022-11-02T10:24:25.595Z,17.53
2022-11-02T10:26:57.473Z,17.66
2022-11-02T10:29:31.922Z,17.87
2022-11-02T10:32:02.786Z,18.13
2022-11-02T10:34:31.755Z,18.24
2022-11-02T10:37:07.538Z,18.28
2022-11-02T10:39:40.276Z,18.14
2022-11-02T10:42:17.252Z,18.18
2022-11-02T10:44:56.613Z,18.38
2022-11-02T10:47:28.762Z,18.56
2022-11-02T10:50:11.872Z,18.68
2022-11-02T10:52:43.360Z,18.88
2022-11-02T10:55:18.626Z,19.04
2022-11-02T10:57:47.076Z,19.13
2022-11-02T11:00:26.335Z,19.09
2022-11-02T11:03:05.856Z,19.19
2022-11-02T11:05:37.422Z,19.15
2022-11-02T11:08:06.799Z,19.08
2022-11-02T11:10:38.188Z,19.35
2022-11-02T11:15:57.066Z,19.41
2022-11-02T11:21:15.119Z,19.43
2022-11-02T11:23:43.410Z,19.62
2022-11-02T11:26:27.486Z,19.74
2022-11-02T11:28:56.926Z,19.77
2022-11-02T11:31:25.598Z,19.82
2022-11-02T11:33:55.330Z,19.97
2022-11-02T11:39:01.445Z,20.16
2022-11-02T11:41:30.358Z,20.40
2022-11-02T11:43:59.192Z,20.57
2022-11-02T11:46:41.548Z,20.75
2022-11-02T11:49:18.757Z,20.76
2022-11-02T11:51:50.614Z,20.67
2022-11-02T11:54:20.666Z,20.23
2022-11-02T11:56:49.454Z,20.17
2022-11-02T11:59:22.488Z,20.03
2022-11-02T12:01:52.725Z,20.15
2022-11-02T12:04:31.498Z,20.28
2022-11-02T12:07:09.498Z,20.46
2022-11-02T12:09:42.878Z,20.63
2022-11-02T12:12:17.386Z,20.84
2022-11-02T12:14:50.398Z,20.91
2022-11-02T12:17:29.466Z,21.02
2022-11-02T12:20:07.806Z,20.89
2022-11-02T12:22:42.623Z,20.84
2022-11-02T12:25:28.793Z,20.78
2022-11-02T12:28:03.250Z,20.88
2022-11-02T12:30:38.049Z,21.00
2022-11-02T12:33:09.417Z,21.10
2022-11-02T12:35:51.027Z,20.99
2022-11-02T12:38:30.076Z,21.16
2022-11-02T12:41:05.253Z,21.18
2022-11-02T12:43:39.508Z,21.15
2022-11-02T12:46:11.992Z,20.94
2022-11-02T12:48:43.851Z,20.61
2022-11-02T12:51:14.379Z,20.29
2022-11-02T12:53:45.848Z,20.08
2022-11-02T12:56:20.998Z,19.89
2022-11-02T12:58:49.678Z,19.85
2022-11-02T13:01:22.437Z,19.81
2022-11-02T13:03:53.373Z,19.66
2022-11-02T13:06:25.802Z,19.51
2022-11-02T13:08:56.590Z,19.47
2022-11-02T13:11:30.204Z,19.56
2022-11-02T13:14:00.031Z,19.70
2022-11-02T13:16:34.939Z,19.64
2022-11-02T13:19:04.099Z,19.53
2022-11-02T13:21:38.567Z,19.44
2022-11-02T13:24:14.757Z,19.46
2022-11-02T13:26:47.462Z,19.44
2022-11-02T13:29:19.192Z,19.41
2022-11-02T13:31:49.227Z,19.41
2022-11-02T13:34:19.789Z,19.37
2022-11-02T13:36:48.233Z,19.30
2022-11-02T13:39:19.040Z,19.36
2022-11-02T13:41:58.032Z,19.42
2022-11-02T13:44:38.102Z,19.30
2022-11-02T13:47:18.482Z,19.09
2022-11-02T13:49:50.931Z,18.93
2022-11-02T13:52:22.499Z,18.83
2022-11-02T13:54:52.759Z,18.76
2022-11-02T13:57:25.681Z,18.67
2022-11-02T13:59:55.364Z,18.54
2022-11-02T14:02:24.489Z,18.42
2022-11-02T14:04:52.872Z,18.37
2022-11-02T14:07:24.760Z,18.27
2022-11-02T14:09:57.744Z,18.17
2022-11-02T14:12:28.477Z,18.07
2022-11-02T14:15:07.419Z,17.98
2022-11-02T14:20:37.811Z,17.82
2022-11-02T14:23:21.104Z,17.75
2022-11-02T14:25:50.312Z,17.67
2022-11-02T14:28:30.329Z,17.57
2022-11-02T14:31:02.258Z,17.49
2022-11-02T14:33:39.005Z,17.39
2022-11-02T14:36:11.585Z,17.32
2022-11-02T14:38:57.718Z,17.23
2022-11-02T14:41:37.103Z,17.12
2022-11-02T14:44:15.801Z,17.03
2022-11-02T14:46:56.916Z,16.94
2022-11-02T14:49:27.321Z,16.88
2022-11-02T14:52:03.928Z,16.78
2022-11-02T14:54:34.540Z,16.60
2022-11-02T14:57:05.899Z,16.54
2022-11-02T14:59:37.012Z,16.49
2022-11-02T15:02:07.443Z,16.39
2022-11-02T15:04:36.502Z,16.25
2022-11-02T15:07:07.462Z,16.09
2022-11-02T15:09:46.539Z,15.95
2022-11-02T15:12:25.800Z,15.84
2022-11-02T15:14:56.350Z,15.73
2022-11-02T15:17:35.602Z,15.61
2022-11-02T15:20:18.819Z,15.46
2022-11-02T15:22:49.782Z,15.37
2022-11-02T15:25:21.491Z,15.28
2022-11-02T15:27:53.058Z,15.22
2022-11-02T15:30:26.983Z,15.22
2022-11-02T15:33:01.993Z,15.23
2022-11-02T15:35:32.842Z,15.20
2022-11-02T15:38:17.037Z,15.17
2022-11-02T15:40:49.324Z,15.13
2022-11-02T15:43:30.041Z,15.11
2022-11-02T15:46:05.124Z,15.08
2022-11-02T15:48:43.250Z,15.05
2022-11-02T15:51:17.601Z,15.03
2022-11-02T15:54:03.630Z,15.01
2022-11-02T15:56:41.812Z,14.96
2022-11-02T15:59:22.378Z,14.94
2022-11-02T16:02:04.141Z,14.90
2022-11-02T16:04:32.745Z,14.83
2022-11-02T16:07:06.052Z,14.70
2022-11-02T16:09:36.863Z,14.65
2022-11-02T16:12:12.303Z,14.58
2022-11-02T16:14:42.253Z,14.55
2022-11-02T16:17:20.321Z,14.53
2022-11-02T16:19:49.609Z,14.42
2022-11-02T16:22:24.379Z,14.34
2022-11-02T16:24:53.716Z,14.22
2022-11-02T16:27:22.551Z,14.14
2022-11-02T16:29:52.319Z,14.05
2022-11-02T16:32:20.480Z,14.01
2022-11-02T16:34:48.880Z,13.89
2022-11-02T16:37:19.550Z,13.82
2022-11-02T16:39:48.992Z,13.76
2022-11-02T16:42:19.299Z,13.75
2022-11-02T16:44:58.531Z,13.68
2022-11-02T16:47:36.339Z,13.61
2022-11-02T16:50:05.979Z,13.60
2022-11-02T16:52:35.187Z,13.61
2022-11-02T16:55:03.871Z,13.61
2022-11-02T16:57:33.271Z,13.60
2022-11-02T17:00:02.929Z,13.52
2022-11-02T17:02:36.324Z,13.53
2022-11-02T17:05:06.853Z,13.53
2022-11-02T17:07:37.294Z,13.51
2022-11-02T17:10:07.238Z,13.53
2022-11-02T17:12:36.559Z,13.57
2022-11-02T17:15:06.132Z,13.56
2022-11-02T17:17:40.662Z,13.52
2022-11-02T17:20:17.519Z,13.47
2022-11-02T17:22:53.577Z,13.41
2022-11-02T17:25:23.523Z,13.34
2022-11-02T17:27:52.289Z,13.26
2022-11-02T17:30:41.503Z,13.25
2022-11-02T17:33:12.045Z,13.23
2022-11-02T17:35:45.957Z,13.22
2022-11-02T17:38:14.478Z,13.26
2022-11-02T17:40:42.960Z,13.29
2022-11-02T17:43:10.278Z,13.30
2022-11-02T17:45:39.392Z,13.31
2022-11-02T17:48:10.065Z,13.29
2022-11-02T17:50:41.021Z,13.22
2022-11-02T17:53:12.515Z,13.12
2022-11-02T17:55:41.374Z,13.06
2022-11-02T17:58:09.883Z,12.98
2022-11-02T18:00:38.432Z,12.97
2022-11-02T18:03:11.485Z,12.90
2022-11-02T18:05:43.708Z,12.77
2022-11-02T18:08:16.251Z,12.70
2022-11-02T18:10:46.701Z,12.67
2022-11-02T18:13:15.952Z,12.56
2022-11-02T18:15:44.489Z,12.53
2022-11-02T18:18:13.090Z,12.49
2022-11-02T18:20:43.049Z,12.36
2022-11-02T18:23:15.361Z,12.37
2022-11-02T18:25:43.617Z,12.34
2022-11-02T18:28:11.899Z,12.29
2022-11-02T18:30:43.379Z,12.26
2022-11-02T18:33:13.887Z,12.24
2022-11-02T18:35:44.558Z,12.14
2022-11-02T18:38:13.439Z,12.12
2022-11-02T18:40:41.722Z,12.09
2022-11-02T18:43:10.222Z,12.00
2022-11-02T18:45:38.633Z,11.97
2022-11-02T18:48:07.404Z,11.99
2022-11-02T18:50:36.313Z,11.96
2022-11-02T18:53:06.342Z,11.94
2022-11-02T18:55:34.588Z,11.87
2022-11-02T18:58:03.345Z,11.89
2022-11-02T19:00:31.859Z,11.87
2022-11-02T19:03:00.243Z,11.78
2022-11-02T19:05:38.360Z,11.74
2022-11-02T19:08:19.561Z,11.71
2022-11-02T19:10:48.731Z,11.68
2022-11-02T19:13:17.052Z,11.62
2022-11-02T19:15:45.443Z,11.54
2022-11-02T19:18:13.700Z,11.55
2022-11-02T19:20:42.032Z,11.57
2022-11-02T19:23:11.800Z,11.56
2022-11-02T19:25:40.198Z,11.49
2022-11-02T19:28:08.772Z,11.52
2022-11-02T19:30:38.921Z,11.51
2022-11-02T19:33:07.714Z,11.45
2022-11-02T19:35:36.491Z,11.35
2022-11-02T19:38:04.838Z,11.31
2022-11-02T19:40:35.400Z,11.31
2022-11-02T19:43:04.087Z,11.32
2022-11-02T19:45:32.838Z,11.26
2022-11-02T19:48:03.436Z,11.19
2022-11-02T19:50:32.010Z,11.11
2022-11-02T19:53:01.218Z,11.02
2022-11-02T19:55:29.891Z,10.99
2022-11-02T19:57:59.472Z,10.94
2022-11-02T20:00:27.691Z,10.90
2022-11-02T20:02:56.477Z,10.95
2022-11-02T20:05:24.971Z,10.93
2022-11-02T20:07:53.210Z,10.88
2022-11-02T20:10:23.731Z,10.85
2022-11-02T20:12:51.930Z,10.86
2022-11-02T20:15:21.584Z,10.78
2022-11-02T20:18:13.316Z,10.74
2022-11-02T20:20:38.221Z,10.75
2022-11-02T20:23:06.363Z,10.74
2022-11-02T20:25:34.630Z,10.72
2022-11-02T20:28:03.601Z,10.66
2022-11-02T20:30:33.657Z,10.65
2022-11-02T20:33:01.960Z,10.73
2022-11-02T20:35:30.450Z,10.74
2022-11-02T20:37:59.051Z,10.68
2022-11-02T20:40:28.671Z,10.68
2022-11-02T20:42:58.850Z,10.68
2022-11-02T20:45:28.786Z,10.68
2022-11-02T20:48:02.795Z,10.63
2022-11-02T20:50:31.241Z,10.54
2022-11-02T20:52:59.446Z,10.53
2022-11-02T20:55:28.854Z,10.55
2022-11-02T20:57:57.771Z,10.50
2022-11-02T21:00:26.873Z,10.42
2022-11-02T21:02:55.078Z,10.45
2022-11-02T21:05:24.684Z,10.44
2022-11-02T21:07:53.824Z,10.35
2022-11-02T21:10:22.053Z,10.31
2022-11-02T21:13:00.173Z,10.30
2022-11-02T21:15:29.369Z,10.25
2022-11-02T21:17:57.582Z,10.17
2022-11-02T21:20:34.271Z,10.17
2022-11-02T21:23:03.786Z,10.12
2022-11-02T21:25:33.286Z,10.14
2022-11-02T21:28:01.922Z,10.15
2022-11-02T21:30:32.204Z,10.21
2022-11-02T21:33:01.398Z,10.17
2022-11-02T21:35:30.934Z,10.11
2022-11-02T21:38:01.339Z,10.14
2022-11-02T21:40:32.314Z,10.09
2022-11-02T21:43:00.906Z,10.06
2022-11-02T21:45:32.238Z,10.06
2022-11-02T21:48:05.516Z,10.04
2022-11-02T21:50:35.086Z,9.90
2022-11-02T21:53:03.571Z,9.85
2022-11-02T21:55:32.087Z,9.80
2022-11-02T21:58:00.444Z,9.79
2022-11-02T22:00:48.978Z,9.75
2022-11-02T22:03:16.318Z,9.73
2022-11-02T22:05:59.064Z,9.69
2022-11-02T22:08:37.463Z,9.69
2022-11-02T22:11:05.827Z,9.60
2022-11-02T22:13:34.106Z,9.58
2022-11-02T22:16:10.037Z,9.61
2022-11-02T22:18:38.286Z,9.69
2022-11-02T22:21:08.336Z,9.63
2022-11-02T22:23:36.729Z,9.61
2022-11-02T22:26:07.073Z,9.54
2022-11-02T22:28:37.826Z,9.48
2022-11-02T22:31:06.623Z,9.36
2022-11-02T22:33:34.903Z,9.36
2022-11-02T22:36:04.827Z,9.32
2022-11-02T22:38:44.537Z,9.33
2022-11-02T22:41:12.972Z,9.36
2022-11-02T22:43:41.225Z,9.36
2022-11-02T22:46:10.063Z,9.26
2022-11-02T22:48:38.412Z,9.21
2022-11-02T22:51:07.694Z,9.26
2022-11-02T22:53:37.405Z,9.31
2022-11-02T22:56:09.034Z,9.32
2022-11-02T22:58:38.165Z,9.28
2022-11-02T23:01:06.952Z,9.23
2022-11-02T23:03:35.857Z,9.19
2022-11-02T23:06:06.600Z,9.09
2022-11-02T23:08:36.548Z,8.97
2022-11-02T23:11:17.335Z,8.85
2022-11-02T23:13:46.756Z,8.82
2022-11-02T23:16:26.222Z,8.86
2022-11-02T23:19:07.087Z,8.89
2022-11-02T23:21:35.615Z,8.87
2022-11-02T23:37:43.633Z,8.68
2022-11-02T23:40:31.237Z,8.53
2022-11-02T23:43:00.984Z,8.50
2022-11-02T23:45:29.325Z,8.48
2022-11-02T23:48:01.479Z,8.40
2022-11-02T23:50:41.857Z,8.37
2022-11-02T23:53:22.075Z,8.47
2022-11-02T23:56:00.380Z,8.48
2022-11-02T23:58:30.050Z,8.37
